Time;durP1;ratioP1;P1;durP2;ratioP2;P2;SDS_P1;SDS_P2;PMS_P1;PMS_P2;Temp;Humidity;BMP_temperature;BMP_pressure;BME280_temperature;BME280_humidity;BME280_pressure;Samples;Min_cycle;Max_cycle;Signal;HPM_P1;HPM_P2
2022/12/27 00:01:17;;;;;;;9.00;1.38;;;3.90;99.90;;;;;;4198628;28;20123;-85
2022/12/27 00:03:18;;;;;;;13.25;1.75;;;4.00;99.90;;;;;;4201203;28;20048;-86
2022/12/27 00:05:19;;;;;;;6.68;1.27;;;4.00;99.90;;;;;;4200176;28;20048;-85
2022/12/27 00:07:20;;;;;;;5.15;1.20;;;3.90;99.90;;;;;;4183885;28;20400;-85
2022/12/27 00:09:22;;;;;;;8.52;0.80;;;4.30;99.90;;;;;;4200283;28;20040;-86
2022/12/27 00:11:28;;;;;;;3.60;0.98;;;3.90;99.90;;;;;;4201924;28;20052;-85
2022/12/27 00:13:29;;;;;;;8.98;1.23;;;4.20;99.90;;;;;;4201857;28;20127;-85
2022/12/27 00:15:33;;;;;;;4.93;1.30;;;4.70;99.90;;;;;;4201733;28;20051;-84
2022/12/27 00:17:34;;;;;;;6.28;0.85;;;4.20;99.90;;;;;;4183530;28;20092;-84
2022/12/27 00:19:35;;;;;;;4.88;1.00;;;3.90;99.90;;;;;;4201375;28;20400;-84
2022/12/27 00:21:36;;;;;;;5.38;1.10;;;3.90;99.90;;;;;;4184060;28;20053;-84
2022/12/27 00:23:40;;;;;;;5.63;1.05;;;4.00;99.90;;;;;;4184013;28;20079;-84
2022/12/27 00:25:42;;;;;;;5.30;1.20;;;4.00;99.90;;;;;;4201480;28;20555;-84
2022/12/27 00:27:45;;;;;;;10.98;1.52;;;4.20;99.90;;;;;;4183933;28;20080;-84
2022/12/27 00:29:46;;;;;;;15.43;1.10;;;4.10;99.90;;;;;;4200440;28;20079;-84
2022/12/27 00:31:47;;;;;;;9.25;1.33;;;4.10;99.90;;;;;;4200037;28;20048;-84
2022/12/27 00:33:52;;;;;;;6.13;1.42;;;4.10;99.90;;;;;;4201014;28;20040;-84
2022/12/27 00:35:53;;;;;;;6.40;1.00;;;3.80;99.90;;;;;;4183327;28;20059;-84
2022/12/27 00:37:54;;;;;;;19.83;1.65;;;4.10;99.90;;;;;;4200256;28;20130;-84
2022/12/27 00:39:55;;;;;;;14.65;1.60;;;4.10;99.90;;;;;;4183353;28;20044;-84
2022/12/27 00:41:56;;;;;;;7.93;2.45;;;4.10;99.90;;;;;;4183153;28;20131;-84
2022/12/27 00:43:57;;;;;;;5.78;1.10;;;4.10;99.90;;;;;;4200205;28;20087;-84
2022/12/27 00:45:59;;;;;;;9.80;1.63;;;4.10;99.90;;;;;;4200067;28;20055;-84
2022/12/27 00:48:01;;;;;;;7.35;1.58;;;4.00;99.90;;;;;;4201374;28;20475;-84
2022/12/27 00:50:02;;;;;;;9.10;2.28;;;4.10;99.90;;;;;;4200929;28;20040;-84
2022/12/27 00:52:03;;;;;;;6.22;1.13;;;4.10;99.90;;;;;;4199970;28;20059;-84
2022/12/27 00:54:06;;;;;;;8.75;1.45;;;4.20;99.90;;;;;;4200735;28;20037;-84
2022/12/27 00:56:09;;;;;;;10.10;1.15;;;4.10;99.90;;;;;;4199072;28;20041;-84
2022/12/27 00:58:11;;;;;;;9.23;1.05;;;4.10;99.90;;;;;;4201304;28;20045;-84
2022/12/27 01:00:13;;;;;;;11.93;1.30;;;4.00;99.90;;;;;;4199682;28;20048;-84
2022/12/27 01:02:15;;;;;;;5.95;1.20;;;4.10;99.90;;;;;;4200709;28;20041;-85
2022/12/27 01:04:16;;;;;;;11.73;1.27;;;4.10;99.90;;;;;;4201171;28;20102;-84
2022/12/27 01:06:21;;;;;;;4.07;0.90;;;4.10;99.90;;;;;;4200112;28;20055;-86
2022/12/27 01:08:22;;;;;;;6.63;1.17;;;4.40;99.90;;;;;;4215866;28;20186;-84
2022/12/27 01:10:23;;;;;;;11.90;2.17;;;4.10;99.90;;;;;;4183014;28;20104;-84
2022/12/27 01:12:24;;;;;;;9.48;1.52;;;4.20;99.90;;;;;;4199887;28;20131;-85
2022/12/27 01:14:25;;;;;;;5.97;1.00;;;4.20;99.90;;;;;;4182691;28;20051;-85
2022/12/27 01:16:29;;;;;;;5.85;1.48;;;4.30;99.90;;;;;;4200850;28;20098;-84
2022/12/27 01:18:30;;;;;;;12.10;1.33;;;4.30;99.90;;;;;;4199412;28;20059;-85
2022/12/27 01:20:30;;;;;;;5.90;1.20;;;4.40;99.90;;;;;;4183592;28;20049;-84
2022/12/27 01:22:31;;;;;;;4.63;1.05;;;4.30;99.90;;;;;;4199501;28;20463;-84
2022/12/27 01:24:33;;;;;;;8.60;1.95;;;4.30;99.90;;;;;;4200936;28;20055;-84
2022/12/27 01:26:35;;;;;;;6.32;1.23;;;4.30;99.90;;;;;;4198879;28;20087;-84
2022/12/27 01:28:36;;;;;;;7.75;2.28;;;4.50;99.90;;;;;;4182731;28;20409;-84
2022/12/27 01:30:37;;;;;;;6.15;1.27;;;4.30;99.90;;;;;;4199278;28;20054;-84
2022/12/27 01:32:38;;;;;;;7.85;1.10;;;4.30;99.90;;;;;;4200257;28;20083;-84
2022/12/27 01:34:39;;;;;;;12.90;1.75;;;4.40;99.90;;;;;;4182580;28;20048;-85
2022/12/27 01:36:41;;;;;;;7.07;1.20;;;4.40;99.90;;;;;;4199361;28;20056;-84
2022/12/27 01:38:43;;;;;;;7.10;1.92;;;4.90;99.90;;;;;;4199373;28;20044;-84
2022/12/27 01:40:45;;;;;;;7.22;1.40;;;5.00;99.90;;;;;;4199944;28;20036;-84
2022/12/27 01:42:52;;;;;;;10.10;2.60;;;5.90;99.90;;;;;;4199733;28;20070;-84
2022/12/27 01:44:57;;;;;;;5.78;1.35;;;5.30;99.90;;;;;;4198416;28;20464;-85
2022/12/27 01:47:00;;;;;;;7.85;1.13;;;4.70;99.90;;;;;;4199702;28;20923;-84
2022/12/27 01:49:01;;;;;;;5.25;1.20;;;4.70;99.90;;;;;;4199673;28;20045;-84
2022/12/27 01:51:04;;;;;;;5.72;1.25;;;4.90;99.90;;;;;;4199596;28;20503;-85
2022/12/27 01:53:17;;;;;;;7.00;1.48;;;4.70;99.90;;;;;;4197723;28;20040;-85
2022/12/27 01:55:27;;;;;;;6.50;1.42;;;4.80;99.90;;;;;;4199724;28;20519;-84
2022/12/27 01:57:28;;;;;;;11.50;0.90;;;4.80;99.90;;;;;;4199330;28;20405;-85
2022/12/27 01:59:30;;;;;;;6.57;0.77;;;5.50;99.90;;;;;;4199514;28;20469;-85
2022/12/27 02:01:41;;;;;;;8.52;2.00;;;5.20;99.90;;;;;;4199013;28;20040;-84
2022/12/27 02:03:49;;;;;;;10.63;1.20;;;5.40;99.90;;;;;;4181858;28;20060;-84
2022/12/27 02:05:51;;;;;;;6.38;1.83;;;6.70;99.90;;;;;;4197848;28;20052;-84
2022/12/27 02:08:24;;;;;;;11.00;2.13;;;5.00;99.90;;;;;;4199347;28;20513;-84
2022/12/27 02:10:27;;;;;;;4.90;1.98;;;4.90;99.90;;;;;;4198167;28;20495;-85
2022/12/27 02:12:30;;;;;;;3.30;0.60;;;4.90;99.90;;;;;;4199380;28;20056;-85
2022/12/27 02:14:34;;;;;;;10.70;0.90;;;4.90;99.90;;;;;;4198589;28;20044;-84
2022/12/27 02:16:35;;;;;;;5.18;1.27;;;4.80;99.90;;;;;;4199503;28;20407;-84
2022/12/27 02:18:37;;;;;;;4.47;1.33;;;4.80;99.90;;;;;;4198855;28;20041;-83
2022/12/27 02:21:10;;;;;;;4.15;1.08;;;5.40;99.90;;;;;;4200842;28;20041;-85
2022/12/27 02:25:45;;;;;;;6.60;1.10;;;5.20;99.90;;;;;;4199855;28;20193;-84
2022/12/27 02:27:58;;;;;;;8.55;2.13;;;5.10;99.90;;;;;;4184551;28;20136;-84
2022/12/27 02:30:05;;;;;;;6.28;0.68;;;4.90;99.90;;;;;;4201280;28;20044;-84
2022/12/27 02:32:27;;;;;;;1.38;0.50;;;5.00;99.90;;;;;;4201387;28;20044;-84
2022/12/27 02:34:47;;;;;;;3.05;0.95;;;4.90;99.90;;;;;;4184279;28;20132;-84
2022/12/27 02:36:52;;;;;;;9.00;0.88;;;5.30;99.90;;;;;;4200971;28;20536;-84
2022/12/27 02:38:56;;;;;;;7.95;1.10;;;5.00;99.90;;;;;;4199484;28;20056;-84
2022/12/27 02:53:27;;;;;;;18.70;1.80;;;4.80;99.90;;;;;;4198360;28;20052;-84
2022/12/27 02:57:07;;;;;;;7.18;1.25;;;4.80;99.90;;;;;;4180773;28;20517;-85
2022/12/27 02:58:20;;;;;;;8.90;1.67;;;4.80;99.90;;;;;;4197131;28;20107;-85
2022/12/27 03:03:22;;;;;;;10.85;2.17;;;5.10;99.90;;;;;;4198765;28;20048;-85
2022/12/27 03:05:26;;;;;;;7.28;0.93;;;4.80;99.90;;;;;;4197487;28;20570;-84
2022/12/27 03:07:38;;;;;;;5.55;1.77;;;4.80;99.90;;;;;;4197890;28;20045;-85
2022/12/27 03:15:55;;;;;;;11.60;1.75;;;4.80;99.90;;;;;;4197083;28;20057;-85
2022/12/27 03:18:08;;;;;;;7.20;1.25;;;5.30;99.90;;;;;;4180803;28;20521;-85
2022/12/27 03:27:30;;;;;;;12.40;1.83;;;4.90;99.90;;;;;;4197501;28;20056;-85
2022/12/27 03:34:38;;;;;;;5.53;1.13;;;5.50;99.90;;;;;;4198286;28;20056;-85
2022/12/27 03:39:24;;;;;;;4.50;1.00;;;4.80;99.90;;;;;;4201248;28;20044;-83
2022/12/27 03:43:53;;;;;;;7.03;0.85;;;4.70;99.90;;;;;;4202565;28;20048;-84
2022/12/27 03:48:22;;;;;;;7.13;1.20;;;4.70;99.90;;;;;;4200931;28;20052;-83
2022/12/27 03:50:33;;;;;;;5.55;0.90;;;4.60;99.90;;;;;;4201532;28;20463;-85
2022/12/27 03:52:48;;;;;;;3.92;1.10;;;5.50;99.90;;;;;;4200793;28;20063;-85
2022/12/27 03:54:50;;;;;;;2.58;1.05;;;4.70;99.90;;;;;;4202027;28;20049;-84
2022/12/27 03:56:58;;;;;;;5.40;0.90;;;4.70;99.90;;;;;;4201186;28;20480;-84
2022/12/27 03:59:01;;;;;;;6.63;0.93;;;4.60;99.90;;;;;;4201865;28;20513;-84
2022/12/27 04:01:02;;;;;;;10.30;2.95;;;4.60;99.90;;;;;;4184280;28;20045;-84
2022/12/27 04:03:03;;;;;;;14.68;3.58;;;4.60;99.90;;;;;;4201709;28;20587;-84
2022/12/27 04:05:04;;;;;;;11.98;2.78;;;4.60;99.90;;;;;;4201363;28;20048;-85
2022/12/27 04:07:06;;;;;;;8.95;2.58;;;4.60;99.90;;;;;;4201540;28;20568;-84
2022/12/27 04:34:53;;;;;;;6.55;1.38;;;4.60;99.90;;;;;;4201019;28;20052;-85
2022/12/27 04:36:54;;;;;;;9.77;1.70;;;4.80;99.90;;;;;;4201261;28;20166;-85
2022/12/27 04:38:54;;;;;;;6.05;1.13;;;4.50;99.90;;;;;;4199544;28;20040;-84
2022/12/27 04:55:19;;;;;;;9.30;1.50;;;4.60;99.90;;;;;;4200756;28;20131;-85
2022/12/27 04:57:21;;;;;;;4.70;0.70;;;4.60;99.90;;;;;;4200433;28;20049;-84
2022/12/27 05:04:02;;;;;;;8.93;0.70;;;4.40;99.90;;;;;;4201386;28;20056;-83
2022/12/27 05:06:05;;;;;;;6.93;0.65;;;4.40;99.90;;;;;;4199041;28;20048;-84
2022/12/27 05:15:09;;;;;;;5.45;1.85;;;4.30;99.90;;;;;;4200727;28;20045;-84
2022/12/27 05:17:10;;;;;;;10.07;1.10;;;4.30;99.90;;;;;;4200674;28;20089;-84
2022/12/27 05:19:12;;;;;;;9.25;0.93;;;4.30;99.90;;;;;;4200294;28;20101;-85
2022/12/27 05:21:14;;;;;;;8.20;1.17;;;4.20;99.90;;;;;;4199503;28;20043;-85
2022/12/27 05:25:43;;;;;;;4.55;1.63;;;4.20;99.90;;;;;;4200415;28;20044;-84
2022/12/27 05:27:44;;;;;;;8.98;1.60;;;5.00;99.90;;;;;;4200563;28;20040;-84
2022/12/27 05:29:45;;;;;;;10.80;1.40;;;4.10;99.90;;;;;;4182609;28;20040;-84
2022/12/27 05:31:47;;;;;;;9.63;1.20;;;4.20;99.90;;;;;;4200273;28;20043;-84
2022/12/27 05:33:50;;;;;;;4.68;1.58;;;5.70;99.90;;;;;;4198934;28;20060;-85
2022/12/27 05:35:51;;;;;;;7.22;1.98;;;4.20;99.90;;;;;;4182373;28;20110;-85
2022/12/27 05:37:55;;;;;;;7.15;1.25;;;4.20;99.90;;;;;;4199302;28;20442;-85
2022/12/27 05:39:56;;;;;;;9.60;1.70;;;4.20;99.90;;;;;;4182622;28;20405;-85
2022/12/27 05:41:57;;;;;;;13.65;1.80;;;4.20;99.90;;;;;;4182636;28;20049;-85
2022/12/27 05:43:58;;;;;;;8.85;1.60;;;4.20;99.90;;;;;;4199057;28;20377;-85
2022/12/27 05:46:13;;;;;;;12.07;2.03;;;4.10;99.90;;;;;;4199794;28;20047;-85
2022/12/27 05:48:14;;;;;;;10.73;2.25;;;4.10;99.90;;;;;;4198826;28;20037;-85
2022/12/27 05:50:15;;;;;;;6.88;1.60;;;4.10;99.90;;;;;;4198739;28;20440;-85
2022/12/27 05:52:16;;;;;;;10.05;1.70;;;4.10;99.90;;;;;;4200033;28;20040;-85
2022/12/27 05:54:17;;;;;;;8.88;2.05;;;4.10;99.90;;;;;;4197905;28;20087;-85
2022/12/27 05:56:19;;;;;;;7.78;1.35;;;4.10;99.90;;;;;;4181871;28;20047;-85
2022/12/27 05:58:21;;;;;;;12.27;2.03;;;4.20;99.90;;;;;;4198462;28;20131;-85
2022/12/27 06:00:23;;;;;;;8.13;1.50;;;4.00;99.90;;;;;;4197325;28;20044;-84
2022/12/27 06:02:24;;;;;;;6.55;1.15;;;4.00;99.90;;;;;;4200235;28;20040;-85
2022/12/27 06:04:25;;;;;;;4.25;0.90;;;3.90;99.90;;;;;;4182363;28;20045;-85
2022/12/27 06:06:26;;;;;;;13.60;2.92;;;4.70;99.90;;;;;;4182405;28;20060;-85
2022/12/27 06:08:29;;;;;;;4.07;1.02;;;5.50;99.90;;;;;;4199025;28;20060;-84
2022/12/27 06:10:30;;;;;;;4.95;1.65;;;4.50;99.90;;;;;;4199547;28;20516;-85
2022/12/27 06:12:32;;;;;;;8.20;1.42;;;5.40;99.90;;;;;;4182144;28;20049;-85
2022/12/27 06:14:34;;;;;;;9.90;2.13;;;4.40;99.90;;;;;;4199764;28;20040;-85
2022/12/27 06:16:36;;;;;;;5.63;1.20;;;4.20;99.90;;;;;;4199450;28;20037;-85
2022/12/27 06:18:40;;;;;;;11.40;1.60;;;4.20;99.90;;;;;;4199611;28;20503;-85
2022/12/27 06:20:40;;;;;;;8.02;1.17;;;4.00;99.90;;;;;;4200413;28;20048;-85
2022/12/27 06:22:42;;;;;;;14.10;1.30;;;4.90;99.90;;;;;;4200542;28;20052;-84
2022/12/27 06:24:44;;;;;;;11.48;2.15;;;4.10;99.90;;;;;;4183905;28;20447;-83
2022/12/27 06:26:46;;;;;;;5.97;1.15;;;4.00;99.90;;;;;;4199302;28;20413;-84
2022/12/27 06:28:49;;;;;;;6.75;1.80;;;4.30;99.90;;;;;;4200825;28;20489;-84
2022/12/27 06:30:50;;;;;;;8.82;0.90;;;4.00;99.90;;;;;;4199946;28;20049;-84
2022/12/27 06:32:51;;;;;;;6.95;1.50;;;4.20;99.90;;;;;;4201533;28;20401;-85
2022/12/27 06:34:53;;;;;;;6.10;1.38;;;4.00;99.90;;;;;;4201936;28;20055;-85
2022/12/27 06:36:54;;;;;;;7.75;1.15;;;4.00;99.90;;;;;;4201326;28;20051;-85
2022/12/27 06:38:56;;;;;;;9.38;2.13;;;4.00;99.90;;;;;;4199534;28;20036;-85
2022/12/27 06:41:06;;;;;;;7.60;1.20;;;5.90;99.90;;;;;;4199746;28;20041;-85
2022/12/27 06:43:07;;;;;;;8.75;2.17;;;3.80;99.90;;;;;;4199371;28;20591;-85
2022/12/27 06:45:09;;;;;;;9.00;1.27;;;4.40;99.90;;;;;;4197483;28;20052;-84
2022/12/27 06:47:10;;;;;;;14.68;2.17;;;3.80;99.90;;;;;;4199204;28;20098;-84
2022/12/27 06:49:11;;;;;;;20.48;2.95;;;4.10;99.90;;;;;;4198437;28;20056;-85
2022/12/27 06:51:16;;;;;;;7.80;1.48;;;5.20;99.90;;;;;;4197783;28;20467;-84
2022/12/27 06:53:18;;;;;;;13.65;2.13;;;5.40;99.90;;;;;;4199186;28;20078;-84
2022/12/27 06:55:19;;;;;;;9.50;2.40;;;3.90;99.90;;;;;;4197434;28;20571;-84
2022/12/27 06:57:20;;;;;;;10.88;1.75;;;3.80;99.90;;;;;;4199403;28;20048;-85
2022/12/27 06:59:21;;;;;;;15.32;2.17;;;5.70;99.90;;;;;;4196977;28;20516;-85
2022/12/27 07:01:25;;;;;;;8.77;1.55;;;3.60;99.90;;;;;;4199093;28;20044;-84
2022/12/27 07:03:27;;;;;;;5.40;1.20;;;3.90;99.90;;;;;;4197734;28;20040;-85
2022/12/27 07:05:29;;;;;;;11.73;2.35;;;4.40;99.90;;;;;;4197858;28;20043;-85
2022/12/27 07:07:30;;;;;;;9.70;2.70;;;3.80;99.90;;;;;;4181160;28;20107;-85
2022/12/27 07:09:30;;;;;;;6.53;1.73;;;2.10;99.90;;;;;;4198594;28;20061;-84
2022/12/27 07:11:35;;;;;;;13.20;2.28;;;5.50;99.90;;;;;;4198556;28;20059;-85
2022/12/27 07:13:39;;;;;;;9.98;1.52;;;5.90;99.90;;;;;;4198465;28;20095;-85
2022/12/27 07:15:41;;;;;;;16.55;1.67;;;4.20;99.90;;;;;;4199138;28;20052;-84
2022/12/27 07:17:43;;;;;;;7.57;1.85;;;4.90;99.90;;;;;;4201132;28;20079;-85
2022/12/27 07:19:46;;;;;;;17.75;3.45;;;4.70;99.90;;;;;;4197954;28;20056;-84
2022/12/27 07:21:46;;;;;;;8.70;2.03;;;3.80;99.90;;;;;;4181101;28;20092;-85
2022/12/27 07:23:48;;;;;;;7.32;2.15;;;4.60;99.90;;;;;;4198469;28;20045;-85
2022/12/27 07:25:49;;;;;;;6.40;1.90;;;3.90;99.90;;;;;;4198658;28;20098;-85
2022/12/27 07:27:50;;;;;;;9.65;2.13;;;3.70;99.90;;;;;;4180834;28;20057;-85
2022/12/27 07:29:51;;;;;;;9.27;1.73;;;3.70;99.90;;;;;;4197580;28;20050;-84
2022/12/27 07:31:53;;;;;;;8.52;1.75;;;3.70;99.90;;;;;;4198543;28;20044;-84
2022/12/27 07:33:54;;;;;;;6.80;1.38;;;3.80;99.90;;;;;;4198512;28;20036;-85
2022/12/27 07:35:59;;;;;;;11.32;1.83;;;5.60;99.90;;;;;;4180878;28;20068;-85
2022/12/27 07:38:01;;;;;;;6.57;1.70;;;5.20;99.90;;;;;;4198686;28;20106;-85
2022/12/27 07:40:02;;;;;;;10.77;1.88;;;2.30;99.90;;;;;;4197357;28;20454;-84
2022/12/27 07:42:03;;;;;;;9.65;1.48;;;2.30;99.90;;;;;;4197900;28;20515;-85
2022/12/27 07:44:04;;;;;;;17.38;3.72;;;3.70;99.90;;;;;;4180406;28;20045;-85
2022/12/27 07:46:10;;;;;;;8.07;1.58;;;3.70;99.90;;;;;;4180315;28;20059;-85
2022/12/27 07:48:12;;;;;;;5.97;1.58;;;4.10;99.90;;;;;;4181526;28;20059;-85
2022/12/27 07:50:13;;;;;;;6.68;1.95;;;3.70;99.90;;;;;;4181182;28;20124;-83
2022/12/27 07:52:14;;;;;;;9.35;1.63;;;2.30;99.90;;;;;;4199794;28;20071;-84
2022/12/27 07:54:16;;;;;;;5.97;1.80;;;4.70;99.90;;;;;;4198323;28;20074;-84
2022/12/27 07:56:21;;;;;;;8.20;1.77;;;3.60;99.90;;;;;;4199424;28;20531;-84
2022/12/27 07:58:23;;;;;;;8.25;1.98;;;3.90;99.90;;;;;;4198894;28;20066;-84
2022/12/27 08:00:26;;;;;;;9.73;1.98;;;3.80;99.90;;;;;;4197662;28;20163;-83
2022/12/27 08:02:27;;;;;;;8.73;1.42;;;4.40;99.90;;;;;;4181713;28;20120;-84
2022/12/27 08:04:29;;;;;;;18.38;2.10;;;3.60;99.90;;;;;;4200649;28;20106;-84
2022/12/27 08:06:33;;;;;;;14.60;2.55;;;5.20;99.90;;;;;;4198714;28;20047;-84
2022/12/27 08:08:41;;;;;;;6.70;1.83;;;3.60;99.90;;;;;;4198179;28;20056;-84
2022/12/27 08:10:43;;;;;;;9.68;2.55;;;3.80;99.90;;;;;;4179685;28;20053;-84
2022/12/27 08:12:45;;;;;;;8.70;2.03;;;5.70;99.90;;;;;;4197334;28;20076;-84
2022/12/27 08:14:46;;;;;;;12.27;1.38;;;3.70;99.90;;;;;;4197276;28;20048;-84
2022/12/27 08:16:47;;;;;;;3.63;1.52;;;4.20;99.90;;;;;;4197200;28;20535;-84
2022/12/27 08:18:48;;;;;;;12.27;2.08;;;5.20;99.90;;;;;;4198573;28;20076;-84
2022/12/27 08:20:50;;;;;;;13.85;2.42;;;4.90;99.90;;;;;;4198210;28;20051;-84
2022/12/27 08:22:51;;;;;;;15.50;2.78;;;4.70;99.90;;;;;;4183277;28;20061;-84
2022/12/27 08:24:54;;;;;;;11.82;1.58;;;4.80;99.90;;;;;;4202763;28;20084;-84
2022/12/27 08:26:55;;;;;;;6.00;1.27;;;2.50;99.90;;;;;;4202642;28;20048;-84
2022/12/27 08:28:57;;;;;;;10.70;1.42;;;5.30;99.90;;;;;;4185050;28;20045;-84
2022/12/27 08:30:59;;;;;;;15.95;1.58;;;4.30;99.90;;;;;;4204670;28;20048;-85
2022/12/27 08:33:01;;;;;;;13.48;2.20;;;3.90;99.90;;;;;;4202706;28;20056;-83
2022/12/27 08:35:02;;;;;;;11.10;1.77;;;3.80;99.90;;;;;;4186247;28;20049;-84
2022/12/27 08:37:03;;;;;;;6.10;1.73;;;3.70;99.90;;;;;;4204165;28;20124;-84
2022/12/27 08:39:06;;;;;;;10.80;1.45;;;4.90;99.90;;;;;;4203756;28;20412;-84
2022/12/27 08:41:07;;;;;;;11.45;2.17;;;4.00;99.90;;;;;;4203249;28;20056;-84
2022/12/27 08:43:09;;;;;;;10.10;1.77;;;3.10;99.90;;;;;;4202114;28;20497;-84
2022/12/27 08:45:10;;;;;;;13.18;2.03;;;4.00;99.90;;;;;;4183727;28;20131;-85
2022/12/27 08:47:11;;;;;;;10.40;2.05;;;4.30;99.90;;;;;;4199734;28;20052;-84
2022/12/27 08:49:12;;;;;;;9.27;2.08;;;4.20;99.90;;;;;;4201172;28;20048;-84
2022/12/27 08:51:14;;;;;;;7.43;1.75;;;5.70;99.90;;;;;;4201119;28;20062;-86
2022/12/27 08:53:16;;;;;;;5.30;1.30;;;4.50;99.90;;;;;;4201189;28;20041;-84
2022/12/27 08:55:18;;;;;;;6.18;1.27;;;4.50;99.90;;;;;;4201408;28;20052;-85
2022/12/27 08:57:18;;;;;;;10.20;2.22;;;4.80;99.90;;;;;;4200562;28;20049;-84
2022/12/27 08:59:19;;;;;;;9.70;1.55;;;4.80;99.90;;;;;;4200197;28;20041;-84
2022/12/27 09:01:20;;;;;;;6.75;1.63;;;5.10;99.90;;;;;;4199815;28;20048;-85
2022/12/27 09:03:21;;;;;;;10.93;2.58;;;7.10;99.90;;;;;;4199481;28;20052;-84
2022/12/27 09:05:23;;;;;;;13.32;1.98;;;6.70;99.90;;;;;;4198029;28;20051;-84
2022/12/27 09:07:24;;;;;;;9.80;1.75;;;6.10;99.90;;;;;;4198473;28;20044;-84
2022/12/27 09:09:25;;;;;;;11.57;2.10;;;6.50;99.90;;;;;;4199706;28;20056;-85
2022/12/27 09:11:29;;;;;;;8.88;1.48;;;7.80;99.90;;;;;;4198940;28;20052;-85
2022/12/27 09:13:31;;;;;;;5.78;1.58;;;6.90;99.90;;;;;;4199242;28;20044;-83
2022/12/27 09:15:31;;;;;;;15.23;1.65;;;7.80;99.90;;;;;;4181348;28;20053;-84
2022/12/27 09:17:33;;;;;;;13.98;2.35;;;8.00;99.90;;;;;;4199068;28;20040;-83
2022/12/27 09:19:34;;;;;;;10.00;1.50;;;8.20;99.90;;;;;;4198904;28;20500;-84
2022/12/27 09:21:37;;;;;;;10.18;1.60;;;8.50;99.90;;;;;;4199119;28;20067;-85
2022/12/27 09:23:39;;;;;;;10.65;1.77;;;8.90;99.90;;;;;;4198668;28;20041;-85
2022/12/27 09:25:41;;;;;;;13.35;1.60;;;9.40;99.90;;;;;;4196975;28;20049;-85
2022/12/27 09:27:42;;;;;;;9.93;1.42;;;9.40;99.90;;;;;;4198882;28;20049;-85
2022/12/27 09:29:43;;;;;;;10.90;1.65;;;9.40;99.90;;;;;;4198628;28;20118;-85
2022/12/27 09:31:45;;;;;;;10.07;2.20;;;9.50;99.90;;;;;;4181195;28;20049;-85
2022/12/27 09:33:47;;;;;;;7.55;1.88;;;9.90;99.90;;;;;;4198407;28;20119;-85
2022/12/27 09:35:47;;;;;;;7.80;2.20;;;10.20;99.90;;;;;;4198548;28;20041;-85
2022/12/27 09:37:49;;;;;;;9.77;1.50;;;10.30;99.90;;;;;;4198508;28;20043;-84
2022/12/27 09:39:50;;;;;;;5.38;1.40;;;10.90;99.90;;;;;;4197067;28;20052;-84
2022/12/27 09:42:11;;;;;;;10.82;2.05;;;10.70;99.90;;;;;;4198773;28;20060;-84
2022/12/27 09:44:46;;;;;;;8.27;1.80;;;10.70;99.90;;;;;;4199470;28;20056;-84
2022/12/27 09:46:51;;;;;;;9.13;1.73;;;10.40;99.90;;;;;;4166219;28;20070;-83
2022/12/27 09:48:54;;;;;;;10.88;2.55;;;10.50;99.90;;;;;;4180926;28;20045;-84
2022/12/27 09:50:59;;;;;;;9.30;1.77;;;10.50;99.90;;;;;;4197853;28;20094;-85
2022/12/27 09:53:41;;;;;;;7.95;1.75;;;10.30;99.90;;;;;;4201081;28;20044;-84
2022/12/27 09:55:45;;;;;;;7.57;1.83;;;10.20;99.90;;;;;;4176708;28;20056;-84
2022/12/27 09:57:49;;;;;;;7.70;1.90;;;9.90;99.90;;;;;;4199751;28;20049;-84
2022/12/27 09:59:58;;;;;;;7.25;1.45;;;9.70;99.90;;;;;;4199318;28;20068;-84
2022/12/27 10:01:59;;;;;;;12.13;2.05;;;9.50;99.90;;;;;;4198977;28;20040;-84
2022/12/27 10:04:00;;;;;;;7.90;1.70;;;9.20;99.90;;;;;;4197718;28;20044;-84
2022/12/27 10:06:41;;;;;;;5.60;1.85;;;8.80;99.90;;;;;;4197045;28;20048;-84
2022/12/27 10:09:08;;;;;;;6.25;2.28;;;8.40;99.90;;;;;;4196211;28;20048;-84
2022/12/27 10:11:37;;;;;;;9.60;1.70;;;8.30;99.90;;;;;;4198050;28;20056;-84
2022/12/27 10:13:51;;;;;;;9.63;1.58;;;8.30;99.90;;;;;;4196770;28;20045;-84
2022/12/27 10:16:10;;;;;;;8.45;2.13;;;8.30;99.90;;;;;;4201520;28;20493;-84
2022/12/27 10:18:35;;;;;;;7.90;1.17;;;8.30;99.90;;;;;;4181333;28;20057;-84
2022/12/27 10:21:03;;;;;;;6.18;1.73;;;8.30;99.90;;;;;;4198545;28;20400;-85
2022/12/27 10:23:09;;;;;;;13.52;1.85;;;8.30;99.90;;;;;;4204790;28;20048;-84
2022/12/27 10:25:17;;;;;;;9.65;1.63;;;8.50;99.90;;;;;;4196892;28;20088;-84
2022/12/27 10:27:24;;;;;;;9.05;2.15;;;8.80;99.90;;;;;;4181440;28;20104;-84
2022/12/27 10:29:26;;;;;;;6.75;1.77;;;8.40;99.90;;;;;;4196623;28;20052;-85
2022/12/27 10:31:29;;;;;;;4.80;2.05;;;8.40;99.90;;;;;;4196823;28;20044;-85
2022/12/27 10:33:34;;;;;;;6.28;1.30;;;8.50;99.90;;;;;;4180983;28;20049;-84
2022/12/27 10:35:35;;;;;;;9.80;1.85;;;9.30;99.90;;;;;;4198331;28;20123;-85
2022/12/27 10:37:37;;;;;;;9.00;2.13;;;8.70;99.90;;;;;;4197025;28;20040;-85
2022/12/27 10:39:38;;;;;;;8.05;2.20;;;8.60;99.90;;;;;;4196540;28;20429;-85
2022/12/27 10:41:49;;;;;;;13.82;1.65;;;8.80;99.90;;;;;;4196592;28;20127;-85
2022/12/27 10:43:51;;;;;;;8.23;2.08;;;8.50;99.90;;;;;;4196552;28;20487;-85
2022/12/27 10:45:53;;;;;;;10.80;1.50;;;8.40;99.90;;;;;;4179651;28;20485;-85
2022/12/27 10:47:57;;;;;;;10.80;2.10;;;8.50;99.90;;;;;;4213117;28;20040;-85
2022/12/27 10:50:12;;;;;;;9.57;1.60;;;8.20;99.90;;;;;;4178995;28;20083;-85
2022/12/27 10:52:21;;;;;;;8.10;1.67;;;8.40;99.90;;;;;;4179624;28;20394;-84
2022/12/27 10:54:31;;;;;;;9.05;1.95;;;8.70;99.90;;;;;;4198017;28;20075;-84
2022/12/27 10:56:37;;;;;;;8.05;1.25;;;9.90;99.90;;;;;;4197531;28;20044;-85
2022/12/27 10:58:50;;;;;;;12.05;2.03;;;9.00;99.90;;;;;;4196366;28;20056;-84
2022/12/27 11:00:55;;;;;;;11.07;2.17;;;8.80;99.90;;;;;;4197008;28;20059;-84
2022/12/27 11:03:02;;;;;;;7.38;1.33;;;8.70;99.90;;;;;;4196921;28;20044;-84
2022/12/27 11:05:03;;;;;;;9.82;2.00;;;8.80;99.90;;;;;;4196266;28;20052;-84
2022/12/27 11:07:04;;;;;;;4.82;0.95;;;8.40;99.90;;;;;;4197897;28;20429;-84
2022/12/27 11:09:24;;;;;;;5.82;1.23;;;8.30;99.90;;;;;;4195927;28;20056;-85
2022/12/27 11:11:28;;;;;;;6.28;1.15;;;9.10;99.90;;;;;;4196268;28;20060;-85
2022/12/27 11:13:29;;;;;;;6.45;1.60;;;8.60;99.90;;;;;;4196628;28;20040;-85
2022/12/27 11:15:36;;;;;;;9.02;1.58;;;9.40;99.90;;;;;;4196772;28;20119;-84
2022/12/27 11:18:00;;;;;;;9.95;1.35;;;8.70;99.90;;;;;;4197529;28;20040;-85
2022/12/27 11:20:11;;;;;;;10.85;1.65;;;8.90;99.90;;;;;;4197108;28;20056;-84
2022/12/27 11:22:12;;;;;;;7.70;1.20;;;8.90;99.90;;;;;;4195849;28;20326;-84
2022/12/27 11:24:16;;;;;;;11.75;2.13;;;9.10;99.90;;;;;;4197254;28;20041;-84
2022/12/27 11:26:28;;;;;;;7.22;1.73;;;9.10;99.90;;;;;;4196028;28;20047;-84
2022/12/27 11:28:43;;;;;;;8.98;1.92;;;9.20;99.90;;;;;;4197323;28;20057;-84
2022/12/27 11:30:54;;;;;;;7.45;1.15;;;9.10;99.90;;;;;;4197253;28;20397;-84
2022/12/27 11:33:04;;;;;;;14.18;3.05;;;9.20;99.90;;;;;;4196565;28;20045;-84
2022/12/27 11:35:05;;;;;;;13.27;2.40;;;9.20;99.90;;;;;;4179282;28;20481;-84
2022/12/27 11:37:15;;;;;;;8.00;1.42;;;9.20;99.90;;;;;;4197103;28;20053;-84
2022/12/27 11:39:35;;;;;;;7.00;1.13;;;9.20;99.90;;;;;;4197049;28;20049;-84
2022/12/27 11:41:48;;;;;;;8.30;1.73;;;9.50;99.90;;;;;;4196643;28;20135;-84
2022/12/27 11:44:09;;;;;;;10.20;1.30;;;9.00;99.90;;;;;;4197264;28;20083;-84
2022/12/27 11:46:25;;;;;;;5.70;1.85;;;8.90;99.90;;;;;;4179560;28;20063;-84
2022/12/27 11:48:39;;;;;;;4.05;0.90;;;8.70;99.90;;;;;;4196079;28;20051;-84
2022/12/27 11:50:54;;;;;;;4.95;1.17;;;8.50;99.90;;;;;;4197601;28;20052;-84
2022/12/27 11:53:32;;;;;;;9.05;1.40;;;8.50;99.90;;;;;;4179322;28;20049;-84
2022/12/27 11:55:58;;;;;;;6.63;1.85;;;8.50;99.90;;;;;;4179168;28;20060;-84
2022/12/27 11:58:35;;;;;;;5.88;1.67;;;8.90;99.90;;;;;;4198219;28;20170;-84
2022/12/27 12:00:55;;;;;;;8.20;1.48;;;8.40;99.90;;;;;;4199081;28;20436;-84
2022/12/27 12:03:26;;;;;;;8.82;1.40;;;8.50;99.90;;;;;;4200434;28;20052;-84
2022/12/27 12:05:53;;;;;;;9.43;1.20;;;8.90;99.90;;;;;;4149035;28;20154;-84
2022/12/27 12:08:00;;;;;;;16.60;1.40;;;8.70;99.90;;;;;;4152208;28;20088;-85
2022/12/27 12:10:39;;;;;;;7.53;1.30;;;8.70;99.90;;;;;;4200015;28;20094;-85
2022/12/27 12:12:57;;;;;;;7.63;2.30;;;8.90;99.90;;;;;;4200131;28;20045;-85
2022/12/27 12:15:16;;;;;;;6.32;1.00;;;9.00;99.90;;;;;;4200106;28;20047;-84
2022/12/27 12:17:16;;;;;;;4.00;1.20;;;9.30;99.90;;;;;;4198260;28;20438;-84
2022/12/27 12:19:35;;;;;;;6.78;1.27;;;9.30;99.90;;;;;;4199623;28;20045;-84
2022/12/27 12:21:44;;;;;;;7.45;1.98;;;9.30;99.90;;;;;;4199575;28;20568;-84
2022/12/27 12:23:57;;;;;;;6.90;1.10;;;9.30;99.90;;;;;;4198950;28;20052;-85
2022/12/27 12:26:19;;;;;;;6.32;1.15;;;9.50;99.90;;;;;;4199483;28;20078;-85
2022/12/27 12:28:31;;;;;;;9.68;2.58;;;9.60;99.90;;;;;;4199215;28;20116;-85
2022/12/27 12:30:54;;;;;;;9.57;1.50;;;9.80;99.90;;;;;;4198481;28;20080;-85
2022/12/27 12:33:28;;;;;;;6.68;1.27;;;9.90;99.90;;;;;;4199680;28;20048;-85
2022/12/27 12:35:50;;;;;;;6.43;1.23;;;9.90;99.90;;;;;;4199913;28;20055;-85
2022/12/27 12:38:22;;;;;;;11.32;1.40;;;10.00;99.90;;;;;;4198411;28;20102;-86